Terminal Aerodrome Forecast
Issued by NWS

Home | Current Version | Previous Version | Graphics & Text | Print | Product List | Glossary On
Versions: 1 2 3 4 5 6 7 8 9 10 11 12 13
000
FTUS45 KGGW 190525
TAFSDY
TAF
KSDY 190525Z 1906/2006 22006KT P6SM BKN090
     FM190900 25006KT P6SM VCSH OVC080
     FM191200 26006KT P6SM BKN080=

USA.gov is the U.S. government's official web portal to all federal, state and local government web resources and services.